Time;durP1;ratioP1;P1;durP2;ratioP2;P2;SDS_P1;SDS_P2;PMS_P1;PMS_P2;Temp;Humidity;BMP_temperature;BMP_pressure;BME280_temperature;BME280_humidity;BME280_pressure;Samples;Min_cycle;Max_cycle;Signal;HPM_P1;HPM_P2
2023/01/21 00:01:15;;;;;;;60.95;20.23;;;0.30;99.90;;;;;;5119132;27;20035;-80
2023/01/21 00:03:41;;;;;;;62.13;19.63;;;0.30;99.90;;;;;;5118656;27;20039;-80
2023/01/21 00:06:07;;;;;;;62.42;21.35;;;0.30;99.90;;;;;;5118953;27;20145;-79
2023/01/21 00:08:33;;;;;;;66.93;20.45;;;0.30;99.90;;;;;;5118775;27;20059;-83
2023/01/21 00:11:06;;;;;;;58.03;18.88;;;0.70;99.90;;;;;;5118893;27;20051;-80
2023/01/21 00:13:34;;;;;;;60.60;19.20;;;0.20;99.90;;;;;;5101704;27;20451;-80
2023/01/21 00:16:00;;;;;;;57.22;17.88;;;0.50;99.90;;;;;;5136012;27;20031;-80
2023/01/21 00:18:25;;;;;;;54.28;18.80;;;0.20;99.90;;;;;;5122099;27;20038;-79
2023/01/21 00:20:51;;;;;;;58.63;19.08;;;0.20;99.90;;;;;;5105028;27;20077;-79
2023/01/21 00:23:17;;;;;;;56.58;18.00;;;0.30;99.90;;;;;;5121990;27;20081;-80
2023/01/21 00:25:43;;;;;;;60.58;18.92;;;1.00;99.90;;;;;;5121783;27;20042;-79
2023/01/21 00:28:09;;;;;;;53.55;18.35;;;0.20;99.90;;;;;;5122024;27;20054;-80
2023/01/21 00:30:35;;;;;;;50.05;16.75;;;0.20;99.90;;;;;;5138999;27;20031;-80
2023/01/21 00:33:02;;;;;;;53.28;17.50;;;1.10;99.90;;;;;;5138720;27;20126;-80
2023/01/21 00:35:27;;;;;;;57.00;18.13;;;0.10;99.90;;;;;;5121475;27;20522;-80
2023/01/21 00:37:53;;;;;;;51.60;18.23;;;0.60;99.90;;;;;;5138724;27;20126;-80
2023/01/21 00:40:20;;;;;;;47.65;17.33;;;0.10;99.90;;;;;;5138739;27;20528;-80
2023/01/21 00:42:45;;;;;;;49.58;17.48;;;1.10;99.90;;;;;;5121522;27;20039;-80
2023/01/21 00:45:11;;;;;;;59.17;19.15;;;0.00;99.90;;;;;;5137240;27;20031;-80
2023/01/21 00:47:37;;;;;;;47.33;16.20;;;0.40;99.90;;;;;;5138664;27;20121;-80
2023/01/21 00:50:04;;;;;;;56.80;17.40;;;-0.10;99.90;;;;;;5138356;27;20494;-80
2023/01/21 00:52:29;;;;;;;51.42;16.80;;;-0.10;99.90;;;;;;5138576;27;20061;-80
2023/01/21 00:54:56;;;;;;;55.15;16.83;;;-0.10;99.90;;;;;;5121142;27;20537;-80
2023/01/21 00:57:22;;;;;;;51.33;16.85;;;0.50;99.90;;;;;;5138441;27;20035;-81
2023/01/21 00:59:47;;;;;;;53.20;17.88;;;0.50;99.90;;;;;;5120971;27;20137;-80
2023/01/21 01:02:13;;;;;;;51.67;15.95;;;-0.30;99.90;;;;;;5138486;27;20050;-80
2023/01/21 01:04:39;;;;;;;54.83;17.63;;;0.00;99.90;;;;;;5121248;27;20042;-80
2023/01/21 01:07:05;;;;;;;64.57;18.27;;;0.40;99.90;;;;;;5120895;27;20046;-80
2023/01/21 01:09:31;;;;;;;70.25;18.70;;;0.20;99.90;;;;;;5138326;27;20042;-79
2023/01/21 01:11:57;;;;;;;54.40;16.73;;;-0.10;99.90;;;;;;5120953;27;20497;-80
2023/01/21 01:14:23;;;;;;;55.33;17.45;;;-0.30;99.90;;;;;;5120718;27;20070;-80
2023/01/21 01:16:49;;;;;;;57.15;16.48;;;0.00;99.90;;;;;;5120336;27;20070;-79
2023/01/21 01:19:15;;;;;;;59.28;17.70;;;-0.40;99.90;;;;;;5120956;27;20467;-80
2023/01/21 01:21:41;;;;;;;60.83;18.33;;;0.70;99.90;;;;;;5120805;27;20042;-80
2023/01/21 01:24:06;;;;;;;59.13;19.10;;;0.20;99.90;;;;;;5120576;27;20517;-80
2023/01/21 01:26:34;;;;;;;65.20;18.38;;;-0.30;99.90;;;;;;5120775;27;20085;-80
2023/01/21 01:29:01;;;;;;;62.22;18.15;;;0.20;99.90;;;;;;5137599;27;20057;-80
2023/01/21 01:31:27;;;;;;;61.20;18.15;;;-0.40;99.90;;;;;;5137837;27;20126;-80
2023/01/21 01:33:52;;;;;;;69.22;19.38;;;-0.40;99.90;;;;;;5120087;27;20121;-80
2023/01/21 01:36:22;;;;;;;71.13;19.60;;;0.30;99.90;;;;;;5103405;27;20042;-80
2023/01/21 01:38:49;;;;;;;64.18;17.48;;;0.50;99.90;;;;;;5137622;27;20043;-82
2023/01/21 01:41:23;;;;;;;59.03;17.17;;;0.10;99.90;;;;;;5120492;27;20535;-80
2023/01/21 01:43:54;;;;;;;61.83;18.25;;;-0.50;99.90;;;;;;5137384;27;20053;-81
2023/01/21 01:46:21;;;;;;;65.95;18.83;;;-0.60;99.90;;;;;;5120429;27;20466;-80
2023/01/21 01:49:14;;;;;;;78.88;19.80;;;-0.60;99.90;;;;;;5120450;27;20034;-80
2023/01/21 01:51:54;;;;;;;71.85;18.13;;;-0.60;99.90;;;;;;5137438;27;20186;-80
2023/01/21 01:54:30;;;;;;;54.35;16.02;;;-0.70;99.90;;;;;;5137230;27;20058;-82
2023/01/21 01:57:00;;;;;;;60.38;18.35;;;-0.70;99.90;;;;;;5136842;27;20459;-80
2023/01/21 01:59:27;;;;;;;75.30;19.25;;;0.30;99.90;;;;;;5137365;27;20478;-81
2023/01/21 02:01:55;;;;;;;76.63;21.02;;;-0.80;99.90;;;;;;5119854;27;20052;-80
2023/01/21 02:04:25;;;;;;;68.80;19.05;;;-0.80;99.90;;;;;;5137060;27;20049;-80
2023/01/21 02:06:54;;;;;;;59.90;17.45;;;-0.80;99.90;;;;;;5120074;27;20042;-81
2023/01/21 02:09:20;;;;;;;69.38;18.15;;;-0.80;99.90;;;;;;5120003;27;20554;-80
2023/01/21 02:11:46;;;;;;;72.50;17.27;;;0.20;99.90;;;;;;5120172;27;20053;-80
2023/01/21 02:14:12;;;;;;;66.35;16.27;;;-0.80;99.90;;;;;;5119464;27;20039;-80
2023/01/21 02:16:40;;;;;;;66.75;17.63;;;-0.90;99.90;;;;;;5136734;27;20116;-80
2023/01/21 02:19:25;;;;;;;67.82;18.92;;;-0.30;99.90;;;;;;5136791;27;20103;-80
2023/01/21 02:22:09;;;;;;;78.70;17.75;;;-0.40;99.90;;;;;;5136976;27;20038;-80
2023/01/21 02:25:01;;;;;;;67.05;18.70;;;-0.80;99.90;;;;;;5119753;27;20047;-80
2023/01/21 02:27:27;;;;;;;75.78;19.33;;;-0.80;99.90;;;;;;5136575;27;20042;-80
2023/01/21 02:30:20;;;;;;;76.43;18.92;;;0.30;99.90;;;;;;5119657;27;20046;-80
2023/01/21 02:33:08;;;;;;;69.57;18.13;;;-0.80;99.90;;;;;;5136577;27;20336;-80
2023/01/21 02:35:56;;;;;;;69.40;18.50;;;-0.90;99.90;;;;;;5119616;27;20042;-80
2023/01/21 02:42:04;;;;;;;62.17;16.85;;;-0.90;99.90;;;;;;5136477;27;20054;-80
2023/01/21 02:44:31;;;;;;;75.27;18.07;;;-0.90;99.90;;;;;;5098398;27;20042;-81
2023/01/21 02:47:24;;;;;;;79.88;18.48;;;-0.90;99.90;;;;;;5136623;27;20487;-80
2023/01/21 02:50:00;;;;;;;77.28;18.50;;;-0.80;99.90;;;;;;5136517;27;20049;-80
2023/01/21 02:52:26;;;;;;;73.50;19.02;;;-0.70;99.90;;;;;;5136530;27;20424;-80
2023/01/21 02:54:57;;;;;;;82.32;19.23;;;-0.70;99.90;;;;;;5136474;27;20055;-80
2023/01/21 02:57:52;;;;;;;77.10;18.70;;;-0.50;99.90;;;;;;5119048;27;20043;-80
2023/01/21 03:00:24;;;;;;;81.78;19.23;;;-0.50;99.90;;;;;;5136323;27;20541;-79
2023/01/21 03:02:49;;;;;;;82.30;19.23;;;-0.10;99.90;;;;;;5119470;27;20355;-80
2023/01/21 03:05:38;;;;;;;89.38;20.70;;;-0.40;99.90;;;;;;5119138;27;20049;-79
2023/01/21 03:08:20;;;;;;;97.07;20.67;;;-0.40;99.90;;;;;;5136478;27;20400;-79
2023/01/21 03:11:09;;;;;;;91.35;21.38;;;-0.30;99.90;;;;;;5123567;27;20084;-79
2023/01/21 03:16:57;;;;;;;98.65;21.35;;;-0.20;99.90;;;;;;5140182;27;20046;-80
2023/01/21 03:19:31;;;;;;;94.85;22.55;;;-0.20;99.90;;;;;;5140108;27;20057;-79
2023/01/21 03:22:00;;;;;;;101.47;20.70;;;0.10;99.90;;;;;;5123478;27;20129;-80
2023/01/21 03:24:26;;;;;;;91.78;19.58;;;-0.20;99.90;;;;;;5139798;27;20042;-80
2023/01/21 03:26:56;;;;;;;104.15;22.58;;;0.70;99.90;;;;;;5123151;27;20049;-80
2023/01/21 03:29:25;;;;;;;87.28;20.10;;;0.00;99.90;;;;;;5122870;27;20470;-80
2023/01/21 03:31:55;;;;;;;94.05;22.48;;;0.80;99.90;;;;;;5140209;27;20043;-79
2023/01/21 03:34:24;;;;;;;95.13;20.75;;;-0.10;99.90;;;;;;5122452;27;20039;-80
2023/01/21 03:37:12;;;;;;;81.72;18.90;;;0.00;99.90;;;;;;5140015;27;20041;-80
2023/01/21 03:39:50;;;;;;;91.40;21.48;;;0.00;99.90;;;;;;5122961;27;20217;-80
2023/01/21 03:42:17;;;;;;;85.50;20.58;;;0.00;99.90;;;;;;5139721;27;20043;-80
2023/01/21 03:44:43;;;;;;;88.57;20.13;;;0.80;99.90;;;;;;5122705;27;20038;-80
2023/01/21 03:47:30;;;;;;;74.47;18.92;;;-0.10;99.90;;;;;;5122450;27;20374;-79
2023/01/21 03:50:17;;;;;;;85.30;20.23;;;-0.10;99.90;;;;;;5139877;27;20041;-79
2023/01/21 03:52:44;;;;;;;72.90;18.25;;;-0.10;99.90;;;;;;5139627;27;20513;-80
2023/01/21 03:55:12;;;;;;;71.88;18.30;;;0.20;99.90;;;;;;5139654;27;20042;-80
2023/01/21 03:57:37;;;;;;;84.43;20.13;;;-0.20;99.90;;;;;;5122634;27;20190;-80
2023/01/21 04:00:05;;;;;;;77.18;20.17;;;0.40;99.90;;;;;;5139670;27;20044;-80
2023/01/21 04:02:31;;;;;;;83.32;19.38;;;-0.10;99.90;;;;;;5139463;27;20039;-80
2023/01/21 04:04:56;;;;;;;77.18;19.98;;;0.20;99.90;;;;;;5139509;27;20390;-80
2023/01/21 04:07:22;;;;;;;92.45;20.95;;;0.20;99.90;;;;;;5139193;27;20035;-80
2023/01/21 04:09:50;;;;;;;79.90;18.80;;;0.00;99.90;;;;;;5105412;27;20042;-80
2023/01/21 04:12:16;;;;;;;84.95;20.10;;;0.00;99.90;;;;;;5105960;27;20061;-80
2023/01/21 04:14:42;;;;;;;78.72;19.67;;;0.80;99.90;;;;;;5122382;27;20035;-80
2023/01/21 04:17:08;;;;;;;68.03;19.05;;;0.40;99.90;;;;;;5138871;27;20050;-80
2023/01/21 04:19:34;;;;;;;79.15;19.80;;;1.10;99.90;;;;;;5121713;27;20046;-80
2023/01/21 04:22:00;;;;;;;85.68;20.42;;;1.10;99.90;;;;;;5121843;27;20052;-80
2023/01/21 04:24:25;;;;;;;67.45;17.92;;;0.20;99.90;;;;;;5138558;27;20046;-80
2023/01/21 04:26:51;;;;;;;78.18;19.50;;;1.00;99.90;;;;;;5138842;27;20039;-80
2023/01/21 04:29:18;;;;;;;74.90;20.75;;;0.70;99.90;;;;;;5122146;27;20071;-80
2023/01/21 04:31:43;;;;;;;76.43;19.13;;;0.30;99.90;;;;;;5138998;27;20031;-78
2023/01/21 04:34:09;;;;;;;73.97;19.70;;;0.30;99.90;;;;;;5138804;27;20046;-79
2023/01/21 04:36:35;;;;;;;74.00;19.58;;;0.30;99.90;;;;;;5138768;27;20477;-79
2023/01/21 04:39:01;;;;;;;73.07;19.02;;;0.40;99.90;;;;;;5121755;27;20046;-78
2023/01/21 04:41:26;;;;;;;76.40;19.40;;;0.40;99.90;;;;;;5138605;27;20086;-79
2023/01/21 04:43:52;;;;;;;76.70;19.80;;;0.40;99.90;;;;;;5138467;27;20038;-79
2023/01/21 04:46:18;;;;;;;79.03;21.15;;;0.50;99.90;;;;;;5138540;27;20042;-79
2023/01/21 04:48:44;;;;;;;74.32;19.42;;;0.40;99.90;;;;;;5138730;27;20442;-79
2023/01/21 04:51:10;;;;;;;75.85;21.30;;;1.00;99.90;;;;;;5121107;27;20090;-81
2023/01/21 04:53:35;;;;;;;69.35;19.52;;;0.40;99.90;;;;;;5138347;27;20374;-80
2023/01/21 04:56:01;;;;;;;76.55;20.55;;;0.80;99.90;;;;;;5138493;27;20071;-80
2023/01/21 04:58:27;;;;;;;66.93;20.20;;;1.60;99.90;;;;;;5121143;27;20039;-79
2023/01/21 05:00:54;;;;;;;72.57;21.15;;;0.70;99.90;;;;;;5138508;27;20061;-80
2023/01/21 05:03:20;;;;;;;71.80;19.73;;;0.50;99.90;;;;;;5138375;27;20078;-79
2023/01/21 05:05:46;;;;;;;63.95;18.65;;;0.50;99.90;;;;;;5138379;27;20085;-79
2023/01/21 05:08:11;;;;;;;75.60;20.10;;;1.00;99.90;;;;;;5121286;27;20042;-79
2023/01/21 05:10:37;;;;;;;73.88;20.58;;;1.00;99.90;;;;;;5121017;27;20068;-79
2023/01/21 05:13:03;;;;;;;68.93;19.35;;;0.50;99.90;;;;;;5138151;27;20031;-79
2023/01/21 05:15:29;;;;;;;75.53;22.17;;;1.30;99.90;;;;;;5120992;27;20129;-79
2023/01/21 05:17:54;;;;;;;72.50;21.48;;;0.50;99.90;;;;;;5137505;27;20047;-79
2023/01/21 05:20:20;;;;;;;70.03;19.00;;;1.20;99.90;;;;;;5104050;27;20039;-80
2023/01/21 05:22:47;;;;;;;69.00;19.85;;;0.60;99.90;;;;;;5103952;27;20042;-80
2023/01/21 05:25:14;;;;;;;70.85;21.27;;;0.50;99.90;;;;;;5138041;27;20122;-80
2023/01/21 05:27:39;;;;;;;69.10;19.23;;;0.70;99.90;;;;;;5120577;27;20462;-80
2023/01/21 05:30:06;;;;;;;67.97;20.27;;;0.50;99.90;;;;;;5120805;27;20129;-80
2023/01/21 05:32:32;;;;;;;67.93;19.25;;;0.60;99.90;;;;;;5119991;27;20038;-80
2023/01/21 05:34:57;;;;;;;67.78;20.73;;;1.40;99.90;;;;;;5120720;27;20103;-80
2023/01/21 05:37:23;;;;;;;74.40;21.05;;;0.80;99.90;;;;;;5120572;27;20545;-80
2023/01/21 05:39:49;;;;;;;73.55;19.67;;;0.70;99.90;;;;;;5120423;27;20077;-80
2023/01/21 05:42:14;;;;;;;66.22;19.20;;;0.50;99.90;;;;;;5120525;27;20103;-80
2023/01/21 05:44:40;;;;;;;61.30;18.00;;;0.50;99.90;;;;;;5120323;27;20046;-80
2023/01/21 05:47:07;;;;;;;65.47;20.00;;;0.50;99.90;;;;;;5137274;27;20039;-80
2023/01/21 05:49:34;;;;;;;68.78;19.30;;;1.10;99.90;;;;;;5137333;27;20073;-80
2023/01/21 05:52:00;;;;;;;68.65;19.95;;;0.50;99.90;;;;;;5120441;27;20043;-80
2023/01/21 05:54:26;;;;;;;57.67;17.92;;;0.50;99.90;;;;;;5137056;27;20042;-82
2023/01/21 05:56:51;;;;;;;69.65;20.27;;;0.50;99.90;;;;;;5137344;27;20039;-80
2023/01/21 05:59:17;;;;;;;71.72;20.38;;;0.40;99.90;;;;;;5137397;27;20397;-80
2023/01/21 06:01:42;;;;;;;66.47;21.35;;;1.00;99.90;;;;;;5103031;27;20134;-80
2023/01/21 06:04:08;;;;;;;62.83;20.25;;;0.40;99.90;;;;;;5137215;27;20047;-80
2023/01/21 06:06:34;;;;;;;65.25;19.52;;;0.30;99.90;;;;;;5137015;27;20043;-80
2023/01/21 06:09:00;;;;;;;69.88;22.52;;;0.30;99.90;;;;;;5136832;27;20050;-80
2023/01/21 06:11:25;;;;;;;60.38;18.95;;;0.30;99.90;;;;;;5137202;27;20045;-80
2023/01/21 06:13:51;;;;;;;70.45;21.15;;;0.30;99.90;;;;;;5136609;27;20039;-80
2023/01/21 06:16:17;;;;;;;65.90;19.42;;;0.80;99.90;;;;;;5102697;27;20081;-80
2023/01/21 06:18:42;;;;;;;64.00;19.67;;;0.30;99.90;;;;;;5102325;27;20054;-80
2023/01/21 06:21:08;;;;;;;60.10;19.27;;;1.10;99.90;;;;;;5136686;27;20050;-80
2023/01/21 06:23:34;;;;;;;65.50;19.50;;;0.30;99.90;;;;;;5119606;27;20054;-80
2023/01/21 06:26:00;;;;;;;63.08;19.25;;;0.30;99.90;;;;;;5101251;27;20070;-80
2023/01/21 06:28:26;;;;;;;64.97;18.05;;;0.30;99.90;;;;;;5100562;27;20078;-80
2023/01/21 06:30:51;;;;;;;63.97;19.25;;;1.10;99.90;;;;;;5117102;27;20043;-80
2023/01/21 06:33:17;;;;;;;58.00;18.58;;;0.30;99.90;;;;;;5134494;27;20081;-80
2023/01/21 06:35:43;;;;;;;60.55;18.85;;;0.40;99.90;;;;;;5117180;27;20070;-80
2023/01/21 06:38:08;;;;;;;60.15;17.67;;;0.30;99.90;;;;;;5133787;27;20045;-80
2023/01/21 06:40:34;;;;;;;54.10;17.33;;;1.10;99.90;;;;;;5117081;27;20049;-80
2023/01/21 06:43:00;;;;;;;60.28;17.75;;;0.30;99.90;;;;;;5116250;27;20467;-81
2023/01/21 06:45:26;;;;;;;56.63;17.23;;;0.40;99.90;;;;;;5134198;27;20046;-81
2023/01/21 06:47:51;;;;;;;53.40;16.17;;;0.30;99.90;;;;;;5134023;27;20038;-81
2023/01/21 06:50:17;;;;;;;57.83;18.38;;;0.30;99.90;;;;;;5116807;27;20046;-81
2023/01/21 06:52:45;;;;;;;51.10;15.29;;;0.30;99.90;;;;;;4778483;27;10000810;-81
2023/01/21 06:55:12;;;;;;;57.03;18.75;;;0.30;99.90;;;;;;5134200;27;20047;-81
2023/01/21 06:57:38;;;;;;;57.17;18.40;;;0.30;99.90;;;;;;5133834;27;20046;-81
2023/01/21 07:00:06;;;;;;;61.00;17.27;;;0.20;99.90;;;;;;5134025;27;20067;-81
2023/01/21 07:02:31;;;;;;;59.47;18.92;;;0.20;99.90;;;;;;5116635;27;20385;-81
2023/01/21 07:04:57;;;;;;;58.53;18.05;;;0.80;99.90;;;;;;5116797;27;20039;-81
2023/01/21 07:07:23;;;;;;;56.90;18.27;;;0.10;99.90;;;;;;5133979;27;20039;-83
2023/01/21 07:09:48;;;;;;;62.60;18.80;;;0.10;99.90;;;;;;5133616;27;20564;-81
2023/01/21 07:12:14;;;;;;;59.75;17.90;;;0.50;99.90;;;;;;5099853;27;20172;-83
2023/01/21 07:14:40;;;;;;;64.78;19.40;;;0.00;99.90;;;;;;5132962;27;20101;-81
2023/01/21 07:17:06;;;;;;;65.68;18.40;;;0.00;99.90;;;;;;5116228;27;20371;-81
2023/01/21 07:19:31;;;;;;;70.57;18.95;;;-0.10;99.90;;;;;;5116532;27;20045;-81
2023/01/21 07:21:57;;;;;;;56.63;17.20;;;-0.10;99.90;;;;;;5133499;27;20152;-81
2023/01/21 07:24:23;;;;;;;60.03;17.33;;;0.70;99.90;;;;;;5116208;27;20042;-81
2023/01/21 07:26:48;;;;;;;62.90;18.45;;;-0.30;99.90;;;;;;5132407;27;20412;-81
2023/01/21 07:29:14;;;;;;;61.13;18.75;;;-0.10;99.90;;;;;;5133179;27;20074;-81
2023/01/21 07:31:40;;;;;;;68.88;18.00;;;-0.30;99.90;;;;;;5133231;27;20074;-81
2023/01/21 07:34:06;;;;;;;68.65;19.83;;;-1.00;99.90;;;;;;5132804;27;20042;-81
2023/01/21 07:36:31;;;;;;;70.43;20.23;;;-0.10;99.90;;;;;;5115720;27;20482;-81
2023/01/21 07:38:57;;;;;;;67.88;19.23;;;-0.30;99.90;;;;;;5115483;27;20114;-81
2023/01/21 07:41:23;;;;;;;70.47;20.08;;;-0.20;99.90;;;;;;5116264;27;20095;-81
2023/01/21 07:43:50;;;;;;;67.70;18.70;;;0.30;99.90;;;;;;5098930;27;20042;-80
2023/01/21 07:46:16;;;;;;;74.82;21.35;;;0.00;99.90;;;;;;5098932;27;20047;-82
2023/01/21 07:48:42;;;;;;;79.38;22.08;;;0.00;99.90;;;;;;5133052;27;20045;-81
2023/01/21 07:51:08;;;;;;;79.25;21.50;;;0.30;99.90;;;;;;5115135;27;20409;-81
2023/01/21 07:53:34;;;;;;;79.80;22.42;;;0.30;99.90;;;;;;5112014;28;20039;-80
2023/01/21 07:56:06;;;;;;;86.20;22.63;;;0.10;99.90;;;;;;5115036;27;20352;-81
2023/01/21 07:58:32;;;;;;;85.07;22.88;;;0.20;99.90;;;;;;5116700;27;20039;-81
2023/01/21 08:00:58;;;;;;;84.50;22.08;;;0.20;99.90;;;;;;5099556;27;20058;-81
2023/01/21 08:03:24;;;;;;;88.55;23.63;;;0.30;99.90;;;;;;5116539;27;20085;-82
2023/01/21 08:05:51;;;;;;;86.72;22.20;;;0.30;99.90;;;;;;5116605;27;20126;-81
2023/01/21 08:08:19;;;;;;;80.38;22.08;;;0.40;99.90;;;;;;5099834;27;20289;-80
2023/01/21 08:10:53;;;;;;;74.93;21.85;;;0.40;99.90;;;;;;5082725;27;20039;-81
2023/01/21 08:13:19;;;;;;;74.53;23.88;;;0.40;99.90;;;;;;5099632;27;20043;-80
2023/01/21 08:15:53;;;;;;;67.35;22.13;;;0.60;99.90;;;;;;5116101;27;20039;-80
2023/01/21 08:18:21;;;;;;;76.13;21.75;;;0.50;99.90;;;;;;5116170;27;20054;-81
2023/01/21 08:20:47;;;;;;;71.75;22.35;;;0.50;99.90;;;;;;5116440;27;20062;-82
2023/01/21 08:23:13;;;;;;;82.47;22.63;;;0.60;99.90;;;;;;5099341;27;20456;-82
2023/01/21 08:25:38;;;;;;;77.53;23.15;;;0.60;99.90;;;;;;5099213;27;20138;-79
2023/01/21 08:28:04;;;;;;;75.18;23.80;;;0.60;99.90;;;;;;5098251;27;20077;-81
2023/01/21 08:30:30;;;;;;;67.13;21.63;;;0.90;99.90;;;;;;5117162;27;20490;-82
2023/01/21 08:32:56;;;;;;;68.47;20.70;;;0.70;99.90;;;;;;5101255;27;20126;-82
2023/01/21 08:35:22;;;;;;;69.60;21.85;;;0.70;99.90;;;;;;5084535;27;20039;-82
2023/01/21 08:37:48;;;;;;;71.50;21.88;;;1.80;99.90;;;;;;5118143;27;20425;-80
2023/01/21 08:40:14;;;;;;;74.57;22.33;;;1.90;99.90;;;;;;5117826;27;20039;-82
2023/01/21 08:42:40;;;;;;;72.22;22.38;;;0.90;99.90;;;;;;5101182;27;20035;-82
2023/01/21 08:45:06;;;;;;;80.45;26.08;;;1.40;99.90;;;;;;5101087;27;20043;-83
2023/01/21 08:47:32;;;;;;;74.85;26.35;;;1.10;99.90;;;;;;5084288;27;20043;-82
2023/01/21 08:49:57;;;;;;;75.03;27.38;;;1.40;99.90;;;;;;5100847;27;20041;-82
2023/01/21 08:52:23;;;;;;;80.55;26.52;;;1.80;99.90;;;;;;5101203;27;20096;-83
2023/01/21 08:54:49;;;;;;;77.80;26.77;;;1.10;99.90;;;;;;5101112;27;20423;-82
2023/01/21 08:57:14;;;;;;;67.97;25.55;;;1.70;99.90;;;;;;5100709;27;20499;-82
2023/01/21 08:59:40;;;;;;;63.50;23.92;;;1.90;99.90;;;;;;5083997;27;20046;-82
2023/01/21 09:02:07;;;;;;;67.70;25.80;;;1.00;99.90;;;;;;5083935;27;20043;-81
2023/01/21 09:04:33;;;;;;;63.97;23.02;;;1.90;99.90;;;;;;5100973;27;20050;-81
2023/01/21 09:06:59;;;;;;;57.42;21.27;;;1.00;99.90;;;;;;5082908;27;20043;-82
2023/01/21 09:09:25;;;;;;;54.47;19.63;;;0.90;99.90;;;;;;5117830;27;20100;-82
2023/01/21 09:11:51;;;;;;;54.97;19.58;;;1.70;99.90;;;;;;5083939;27;20428;-81
2023/01/21 09:14:18;;;;;;;56.40;20.27;;;0.70;99.90;;;;;;5100286;27;20447;-81
2023/01/21 09:16:48;;;;;;;61.50;21.17;;;0.70;99.90;;;;;;5100287;27;20043;-81
2023/01/21 09:19:14;;;;;;;53.78;20.73;;;1.50;99.90;;;;;;5117519;27;20036;-82
2023/01/21 09:21:39;;;;;;;59.20;21.27;;;1.20;99.90;;;;;;5117473;27;20043;-83
2023/01/21 09:24:05;;;;;;;61.38;21.42;;;0.50;99.90;;;;;;5117325;27;20046;-83
2023/01/21 09:26:31;;;;;;;53.80;20.27;;;0.60;99.90;;;;;;5100512;27;20050;-82
2023/01/21 09:28:58;;;;;;;59.25;21.23;;;0.60;99.90;;;;;;5100492;27;20051;-83
2023/01/21 09:31:26;;;;;;;64.18;21.92;;;0.60;99.90;;;;;;5117142;27;20046;-82
2023/01/21 09:33:58;;;;;;;61.45;22.10;;;1.10;99.90;;;;;;5117086;27;20462;-82
2023/01/21 09:36:27;;;;;;;63.45;22.58;;;0.70;99.90;;;;;;5117053;27;20078;-83
2023/01/21 09:38:53;;;;;;;69.10;22.58;;;1.10;99.90;;;;;;5117146;27;20043;-83
2023/01/21 09:41:37;;;;;;;66.00;22.48;;;0.90;99.90;;;;;;5099933;27;20378;-80
2023/01/21 09:44:09;;;;;;;67.65;23.23;;;1.00;99.90;;;;;;5099925;27;20047;-82
2023/01/21 09:46:56;;;;;;;66.13;23.30;;;1.60;99.90;;;;;;5116925;27;20039;-82
2023/01/21 09:49:24;;;;;;;66.00;24.55;;;1.10;99.90;;;;;;5116903;27;20042;-82
2023/01/21 09:52:13;;;;;;;70.93;24.42;;;1.40;99.90;;;;;;5099928;27;20078;-81
2023/01/21 09:54:39;;;;;;;60.75;22.70;;;1.30;99.90;;;;;;5116632;27;20050;-83
2023/01/21 09:57:14;;;;;;;66.80;23.75;;;1.40;99.90;;;;;;5099541;27;20039;-83
2023/01/21 10:00:05;;;;;;;67.40;25.42;;;2.50;99.90;;;;;;5116677;27;20079;-82
2023/01/21 10:02:59;;;;;;;66.20;23.40;;;1.60;99.90;;;;;;5116738;27;20081;-83
2023/01/21 10:05:43;;;;;;;55.47;21.90;;;1.70;99.90;;;;;;5116569;27;20107;-83
2023/01/21 10:08:19;;;;;;;62.78;23.02;;;1.80;99.90;;;;;;5124768;27;20047;-84
2023/01/21 10:10:55;;;;;;;59.53;23.35;;;1.90;99.90;;;;;;5117774;27;20043;-84
2023/01/21 10:13:47;;;;;;;58.08;22.52;;;2.90;99.90;;;;;;5134582;27;20078;-83
2023/01/21 10:16:34;;;;;;;58.17;22.30;;;2.20;99.90;;;;;;5134184;27;20129;-83
2023/01/21 10:19:03;;;;;;;53.05;20.63;;;2.30;99.90;;;;;;5134467;27;20057;-84
2023/01/21 10:21:34;;;;;;;51.28;21.13;;;2.30;99.90;;;;;;5116994;27;20078;-84
2023/01/21 10:24:10;;;;;;;50.15;20.73;;;2.40;99.90;;;;;;5134828;27;20042;-84
2023/01/21 10:26:36;;;;;;;49.78;20.05;;;2.40;99.90;;;;;;5117659;27;20046;-83
2023/01/21 10:29:02;;;;;;;46.60;20.02;;;3.20;99.90;;;;;;5117574;27;20065;-84
2023/01/21 10:31:38;;;;;;;48.47;20.13;;;2.90;99.90;;;;;;5117372;27;20042;-83
2023/01/21 10:34:18;;;;;;;47.92;20.50;;;2.50;99.90;;;;;;4779474;27;9999729;-84
2023/01/21 10:37:04;;;;;;;47.65;19.33;;;2.50;99.90;;;;;;5134622;27;20051;-84
2023/01/21 10:39:51;;;;;;;47.35;20.15;;;2.50;99.90;;;;;;5134284;27;20149;-85
2023/01/21 10:42:47;;;;;;;44.08;20.33;;;2.60;99.90;;;;;;5134059;27;20085;-84
2023/01/21 10:45:24;;;;;;;46.30;19.13;;;2.60;99.90;;;;;;5133890;27;20049;-83
2023/01/21 10:48:02;;;;;;;44.22;20.08;;;2.80;99.90;;;;;;5134374;27;20047;-82
2023/01/21 10:50:41;;;;;;;43.92;19.35;;;3.20;99.90;;;;;;5134206;27;20517;-83
2023/01/21 10:53:16;;;;;;;115.75;45.22;;;3.50;99.90;;;;;;5134353;27;20047;-83
2023/01/21 10:56:14;;;;;;;44.08;20.33;;;3.20;99.90;;;;;;5134424;27;20130;-81
2023/01/21 10:58:48;;;;;;;46.63;20.25;;;3.30;99.90;;;;;;5119887;27;20049;-83
2023/01/21 11:01:25;;;;;;;43.25;18.67;;;3.40;99.90;;;;;;5134129;27;20533;-87
2023/01/21 11:03:55;;;;;;;40.40;19.00;;;3.60;99.90;;;;;;5134370;27;20047;-85
2023/01/21 11:06:23;;;;;;;37.33;17.38;;;3.70;99.90;;;;;;5116820;27;20094;-83
2023/01/21 11:08:54;;;;;;;37.67;17.00;;;4.20;99.90;;;;;;5133950;27;20042;-84
2023/01/21 11:11:33;;;;;;;33.42;16.42;;;3.90;99.90;;;;;;5116539;27;20046;-82
2023/01/21 11:13:59;;;;;;;34.05;16.30;;;4.20;99.90;;;;;;5116921;27;20482;-82
2023/01/21 11:16:33;;;;;;;31.70;15.80;;;4.10;99.90;;;;;;5096261;27;20159;-82
2023/01/21 11:18:59;;;;;;;33.55;15.82;;;4.30;99.90;;;;;;5141116;27;20149;-83
2023/01/21 11:21:25;;;;;;;33.47;16.30;;;4.30;99.90;;;;;;5116191;27;20129;-82
2023/01/21 11:23:55;;;;;;;34.83;16.80;;;4.70;99.90;;;;;;5116623;27;20134;-82
2023/01/21 11:26:27;;;;;;;31.40;16.13;;;4.40;99.90;;;;;;5133627;27;20042;-83
2023/01/21 11:29:18;;;;;;;29.35;15.15;;;4.60;99.90;;;;;;5100213;27;20181;-81
2023/01/21 11:32:02;;;;;;;26.92;13.80;;;4.50;99.90;;;;;;5117112;27;20050;-82
2023/01/21 11:34:28;;;;;;;29.70;14.27;;;4.40;99.90;;;;;;5133216;27;20065;-83
2023/01/21 11:37:00;;;;;;;31.10;14.90;;;4.50;99.90;;;;;;5137612;27;20530;-82
2023/01/21 11:39:32;;;;;;;28.00;14.77;;;4.60;99.90;;;;;;5136664;27;20042;-83
2023/01/21 11:42:02;;;;;;;;;;;4.70;99.90;;;;;;5137777;27;20049;-82
2023/01/21 11:44:28;;;;;;;23.77;12.88;;;4.70;99.90;;;;;;5137106;27;19915;-84
2023/01/21 11:46:53;;;;;;;26.85;14.20;;;4.90;99.90;;;;;;5136687;27;20064;-83
2023/01/21 11:49:21;;;;;;;26.33;14.23;;;5.10;99.90;;;;;;5102785;27;20039;-83
2023/01/21 11:51:47;;;;;;;26.45;14.20;;;5.30;99.90;;;;;;5137187;27;20039;-83
2023/01/21 11:54:17;;;;;;;27.77;14.02;;;5.70;99.90;;;;;;5136900;27;20038;-83
2023/01/21 11:56:53;;;;;;;25.30;13.00;;;5.20;99.90;;;;;;5119634;27;20491;-84
2023/01/21 11:59:23;;;;;;;25.13;14.27;;;5.70;99.90;;;;;;5136661;27;20051;-83
2023/01/21 12:02:02;;;;;;;23.83;13.02;;;5.30;99.90;;;;;;5137233;27;20497;-83
2023/01/21 12:04:33;;;;;;;27.83;13.60;;;5.40;99.90;;;;;;5136841;27;20035;-84
2023/01/21 12:06:59;;;;;;;21.90;12.43;;;6.10;99.90;;;;;;5136513;27;20046;-83
2023/01/21 12:09:27;;;;;;;20.48;11.48;;;6.80;99.90;;;;;;5135875;27;20533;-83
2023/01/21 12:12:12;;;;;;;20.35;11.60;;;7.20;99.90;;;;;;5119264;27;20042;-83
2023/01/21 12:15:02;;;;;;;19.83;11.30;;;7.00;99.90;;;;;;5136391;27;20042;-83
2023/01/21 12:17:44;;;;;;;17.92;11.10;;;6.60;99.90;;;;;;5135723;27;20066;-83
2023/01/21 12:20:27;;;;;;;16.17;10.23;;;6.50;1.00;;;;;;5137004;27;20039;-83
2023/01/21 12:23:15;;;;;;;14.45;9.43;;;6.30;99.90;;;;;;5119310;27;20030;-83
2023/01/21 12:26:25;;;;;;;15.77;9.60;;;6.20;1.00;;;;;;5136139;27;20042;-84
2023/01/21 12:29:18;;;;;;;14.82;9.25;;;6.50;99.90;;;;;;5033314;28;20033;-83
2023/01/21 12:31:51;;;;;;;12.60;8.25;;;7.30;99.90;;;;;;5133136;27;20046;-83
2023/01/21 12:34:49;;;;;;;14.55;8.68;;;7.80;99.90;;;;;;5135086;27;20042;-84
2023/01/21 12:37:22;;;;;;;11.27;8.50;;;8.50;76.10;;;;;;5114196;27;20047;-83
2023/01/21 12:39:51;;;;;;;10.88;7.80;;;8.70;99.90;;;;;;5136382;27;20498;-82
2023/01/21 12:42:36;;;;;;;11.30;7.53;;;9.00;99.90;;;;;;5118925;27;20046;-82
2023/01/21 12:45:18;;;;;;;10.10;7.88;;;9.10;99.90;;;;;;5121034;27;20034;-83
2023/01/21 12:47:46;;;;;;;;;;;9.40;1.00;;;;;;5136144;27;20053;-83
2023/01/21 12:50:28;;;;;;;9.40;6.53;;;9.30;99.90;;;;;;5136363;27;20018;-84
2023/01/21 12:53:13;;;;;;;9.68;6.22;;;9.20;1.00;;;;;;5119403;27;20070;-83
2023/01/21 12:56:17;;;;;;;10.10;7.05;;;9.20;1.00;;;;;;5135713;27;20049;-83
2023/01/21 12:59:02;;;;;;;11.27;7.60;;;9.30;1.00;;;;;;5118133;27;20137;-84